EST,Max TemperatureF,Mean TemperatureF,Min TemperatureF,Max Dew PointF,MeanDew PointF,Min DewpointF,Max Humidity, Mean Humidity, Min Humidity, Max Sea Level PressureIn, Mean Sea Level PressureIn, Min Sea Level PressureIn, Max VisibilityMiles, Mean VisibilityMiles, Min VisibilityMiles, Max Wind SpeedMPH, Mean Wind SpeedMPH, Max Gust SpeedMPH,PrecipitationIn, CloudCover, Events, WindDirDegrees
2013-11-1,78,70,62,72,67,63,100,92,74,30.01,29.88,29.78,10,9,2,18,3,24,0.00,3,Rain-Thunderstorm,223
2013-11-2,71,62,53,64,58,50,100,85,46,29.99,29.88,29.80,10,10,7,13,3,18,0.00,2,Rain,314
2013-11-3,66,54,42,50,45,41,100,75,40,30.27,30.14,29.99,10,10,10,10,5,17,0.00,0,,24
2013-11-4,68,55,42,54,47,43,100,75,56,30.38,30.33,30.27,10,10,10,16,7,22,0.00,1,,57
2013-11-5,66,56,46,59,50,43,100,81,63,30.38,30.32,30.28,10,10,5,13,8,17,0.00,6,Rain,50
2013-11-6,75,66,57,66,61,57,100,94,73,30.28,30.19,30.10,10,8,1,10,6,21,0.00,5,,65
2013-11-7,77,65,53,68,59,46,100,87,65,30.11,30.05,29.98,10,8,2,10,2,,0.00,3,,317
2013-11-8,62,50,39,45,41,37,100,70,39,30.28,30.21,30.10,10,10,10,16,7,24,0.00,0,,37
2013-11-9,69,54,39,59,49,37,100,81,60,30.32,30.26,30.22,10,10,10,10,4,,0.00,1,,71
2013-11-10,71,58,46,59,54,46,100,87,57,30.27,30.21,30.16,10,10,10,7,1,,0.00,0,,1
2013-11-11,71,56,42,59,52,43,100,88,60,30.25,30.20,30.16,10,9,5,8,2,9,0.00,0,,95
2013-11-12,69,56,44,59,49,37,100,80,43,30.26,30.13,30.05,10,7,0,22,2,31,0.00,2,Fog,324
2013-11-13,50,40,30,36,29,25,100,69,37,30.51,30.44,30.28,10,10,10,20,11,32,0.00,1,,46
2013-11-14,62,47,32,50,40,28,100,78,54,30.48,30.39,30.29,10,10,7,10,6,17,0.00,1,,59
2013-11-15,62,56,50,61,55,50,100,98,82,30.29,30.21,30.13,10,9,0,7,2,,0.00,4,Fog-Rain,74
2013-11-16,75,65,55,64,60,55,100,91,65,30.22,30.17,30.13,10,6,0,10,2,,0.00,8,Fog-Rain,94
2013-11-17,73,66,60,72,66,61,100,96,83,30.16,30.07,30.01,10,10,2,6,2,,0.00,6,Rain,136
2013-11-18,77,70,60,73,68,45,100,94,49,30.02,29.95,29.89,10,8,3,10,4,,0.00,5,Rain,269
2013-11-19,64,56,48,46,41,37,87,62,42,30.14,30.05,29.97,10,10,7,20,7,23,0.00,1,,54
2013-11-20,59,54,50,52,47,41,88,79,67,30.27,30.20,30.12,10,10,10,16,9,22,0.00,8,,63
2013-11-21,71,62,53,63,56,50,100,88,73,30.34,30.29,30.26,10,10,7,13,8,17,0.00,7,Rain,64
2013-11-22,75,67,59,70,64,59,100,97,78,30.30,30.24,30.17,10,7,0,7,3,,0.00,8,Fog-Rain,52
2013-11-23,71,63,55,68,61,55,100,97,83,30.17,30.11,30.04,10,7,0,16,2,,0.00,6,Fog-Rain,307
2013-11-24,57,46,35,55,35,27,100,64,41,30.46,30.31,30.12,10,10,10,15,8,22,0.00,3,,44
2013-11-25,53,43,33,46,36,23,100,75,60,30.45,30.36,30.18,10,10,10,15,9,23,0.00,4,,67
2013-11-26,69,56,44,70,60,45,100,100,94,30.17,29.88,29.67,10,9,2,13,5,21,0.00,7,Rain,165
2013-11-27,68,50,33,68,45,30,100,89,66,30.26,29.89,29.58,10,10,5,21,11,30,0.00,5,Rain,290
2013-11-28,50,39,28,37,30,27,100,80,50,30.49,30.39,30.26,10,10,10,9,4,,0.00,0,,31
2013-11-29,59,44,30,39,34,30,100,76,39,30.52,30.47,30.42,10,10,7,10,2,,0.00,0,,45
2013-11-30,60,50,41,50,41,36,87,75,63,30.49,30.40,30.30,10,10,5,13,6,16,0.00,7,,47